Airport View

Enter AWOS ICAO identifier for current METAR.

ex. KFNL

KEND 191256Z AUTO 30007KT 10SM CLR 14/14 A2988 RMK AO2 SLP599 T01350135 $

19 May 2019 13:31

Other Area AWOS: KWDG - KBKN - KJWG - KGOK

TAF AMD KEND 172340Z 1723/1824 18020G30KT 9999 FEW015 BKN040 530003 QNH2963INS BECMG 1800/1801 18015G25KT 9999 SCT015 BKN040 510103 QNH2961INS BECMG 1803/1804 18010G15KT 9999 BKN015 OVC025 WS020/20050KT QNH2963INS BECMG 1812/1813 18015G25KT 4800 -SHRA OVC008 540103 QNH2959INS TEMPO 1814/1816 VRB25G35KT 1600 TSRA BKN006CB BECMG 1817/1818 15015G25KT 9000 -SHRA BKN015 QNH2958INS BECMG 1820/1821 15015G25KT 9999 NSW SCT020 BKN040 QNH2955INS TX28/1723Z TN18/1815Z LAST NO AMDS AFT 1723 NEXT 1918